Aviation Digital Data Service (ADDS)

Output produced by METARs form (1953 UTC 27 May 2015)
found at http://aviationweather.gov/adds/metars/
 
KDAG 271950Z AUTO 04005KT 10SM CLR 31/01 A2990 RMK AO2 SLP100 T03110011
KDAG 271720Z 2718/2818 32008KT P6SM SCT250 
     FM272000 04008KT P6SM FEW250 
     FM280100 23012KT P6SM SKC 
     FM280500 27011KT P6SM SKC
       
KEDW 271858Z VRB02KT 60SM FEW250 27/05 A2994 RMK AO2A SLP120 T02680054
TAF KEDW 2718/2824 23009KT 9999 FEW250 QNH2990INS 
     BECMG 2720/2721 23015G20KT 9999 FEW250 510009 QNH2988INS 
     TEMPO 2723/2802 25020G28KT 520009 
     BECMG 2804/2805 22009KT 9999 SKC QNH2995INS 
     BECMG 2820/2821 23012G18KT 9999 SCT250 QNH2990INS 
     TEMPO 2823/2824 25018G23KT 510009 TX33/2823Z TN15/2813Z
       
KVCV 271935Z AUTO 14004KT 10SM CLR 28/M01 A2997 RMK AO2
KONT 271853Z 22006KT 6SM HZ FEW023 19/11 A2999 RMK AO2 SLP150 T01940111
KONT 271737Z 2718/2824 23005KT P6SM SCT025 
     FM272100 26012KT P6SM SKC 
     FM280400 25006KT P6SM SCT010 
     FM280800 VRB04KT 5SM BR OVC009 
     FM281500 VRB03KT 6SM HZ BKN012 
     FM281930 VRB04KT P6SM SCT015 
     FM282100 26012KT P6SM SKC
       
KSNA 271853Z VRB03KT 10SM SCT027 BKN031 19/12 A3000 RMK AO2 SLP157 T01940117
KSNA 271737Z 2718/2818 VRB04KT P6SM OVC022 
     FM272000 22009KT P6SM SCT025 
     FM280200 22005KT P6SM SCT015 SCT025 
     FM280500 VRB04KT P6SM OVC012
       
KSAN 271951Z 29009KT 10SM OVC019 18/12 A3002 RMK AO2 SLP163 T01830122
KSAN 271737Z 2718/2824 29005KT P6SM BKN025 
     FM272000 29010KT P6SM BKN025 
     TEMPO 2721/2801 SCT025 
     FM280300 VRB04KT P6SM OVC015 
     FM282000 29010KT P6SM SCT015
       
KNID 271856Z 00000KT 10SM CLR 29/04 A2992 RMK AO2 SLP112 T02890044 $
TAF KNID 2715/2815 VRB05KT 9999 SKC QNH2986INS 
     BECMG 2722/2800 19008G18KT 9999 SKC QNH2982INS 
     BECMG 2802/2804 21006KT 9999 SKC QNH2985INS WND VRB05KT AFT 2812 T34/2723Z T13/2814Z
       
KNXP 271856Z 10006KT 10SM SCT250 29/02 A2999 RMK AO2 SLP121 T02940017
TAF KNXP 2715/2815 VRB05KT 9999 SCT200 BKN250 QNH2989INS T31/2722Z T18/2812Z
       
KPSP 271853Z 11007KT 10SM CLR 32/06 A2989 RMK AO2 SLP118 T03170061
KPSP 271737Z 2718/2818 VRB05KT P6SM SCT200 
     FM271900 10008KT P6SM SKC 
     FM280000 33013KT P6SM SKC 
     FM280700 VRB05KT P6SM SKC
       
KLAX 271931Z 27010G15KT 10SM FEW020 SCT024 BKN140 18/13 A3001 RMK AO2
KLAX 271951Z 2720/2824 27009KT P6SM FEW020 SCT025 
     FM272200 25014KT P6SM SCT025 SCT250 
     FM280300 25008KT P6SM BKN017 
     FM280600 26005KT P6SM OVC015 
     FM281300 VRB03KT 5SM BR OVC015 
     FM281700 26005KT 6SM HZ BKN020 
     FM282100 25011KT P6SM SCT250
       
KCNO 271853Z 00000KT 8SM CLR 22/12 A3000 RMK AO2 SLP155 T02170117
KSMO 271951Z 21010KT 10SM FEW023 19/12 A3000 RMK AO2 SLP159 T01940117
KLGB 271946Z 23008KT 10SM BKN030 22/12 A3000 RMK AO2 T02170117
KLGB 271733Z 2718/2818 21006KT P6SM OVC025 
     FM272100 27010KT P6SM SCT025 SCT250 
     FM280300 31008KT P6SM OVC015 
     FM280700 VRB03KT P6SM OVC015 
     FM281200 VRB03KT 6SM HZ OVC015
       
KVNY 271951Z 00000KT 10SM SCT021 20/12 A2998 RMK AO2 SLP146 T02000117
KVNY 271929Z 2719/2818 VRB05KT P6SM SCT021 
     FM272100 16008KT P6SM SCT020 SCT250 
     FM280400 VRB03KT P6SM SKC 
     FM280900 VRB03KT P6SM BKN012 
     FM281400 VRB03KT 6SM BR OVC010
       
KBUR 271853Z 8SM FEW023 19/11 A2999 RMK AO2 SLP145 T01940111 PNO $
KBUR 271928Z 2719/2818 VRB05KT P6SM FEW025 
     FM272100 18008KT P6SM SCT020 
     FM280200 VRB03KT P6SM SKC 
     FM280400 VRB03KT P6SM SKC 
     FM280900 15004KT P6SM BKN012 
     FM281200 VRB03KT 5SM HZ OVC010
       
KBFL 271854Z 31007KT 10SM CLR 24/09 A2996 RMK AO2 SLP139 T02440094
KBFL 271720Z 2718/2818 30009KT P6SM SKC 
     FM280300 34006KT P6SM SKC
       
KPMD 271853Z AUTO 00000KT 10SM CLR 27/04 A2996 RMK AO2 SLP122 T02670039
KPMD 271733Z 2718/2818 VRB05KT P6SM SCT250 
     FM272200 23012G21KT P6SM SCT250 
     FM280200 25012KT P6SM SCT250 
     FM280900 20006KT P6SM SKC 
     FM281500 VRB03KT P6SM SKC
       
KOXR 271951Z 25009KT 10SM OVC020 19/12 A3000 RMK AO2 SLP158 T01890117
KOXR 271733Z 2718/2818 29007KT P6SM OVC018 
     FM272200 27014KT P6SM SCT025 SCT250 
     FM280400 28006KT P6SM SCT250 
     FM280700 VRB03KT P6SM SKC 
     FM280900 VRB03KT P6SM OVC012 
     FM281400 VRB03KT 5SM BR OVC015
       
KWJF 271856Z AUTO VRB03KT 10SM CLR 28/05 A2995 RMK AO2 SLP127 T02830050
KWJF 271733Z 2718/2818 VRB05KT P6SM SCT250 
     FM272100 23015G25KT P6SM SCT250 
     FM280400 25012KT P6SM SKC 
     FM281200 26005KT P6SM SKC
       
KCMA 271855Z 25005KT 10SM OVC020 18/12 A3000 RMK AO2 SLP168 T01780117
KFAT 271853Z 27003KT 10SM FEW070 26/10 A2995 RMK AO2 SLP140 CU OMTNS DSNT N-E-S T02560100
KFAT 271720Z 2718/2818 31007KT P6SM SKC
       
KEED 271356Z AUTO 34003KT 10SM CLR 25/03 A2988 RMK AO2 SLP086 T02500028 $
KEED 271720Z 2718/2818 19010KT P6SM BKN250 
     FM280100 23008KT P6SM FEW250 
     FM280800 VRB05KT P6SM SKC
       
KLSV 271858Z AUTO 16006KT 10SM CLR 31/01 A2991 RMK AO2 SLP106 T03050012 $
TAF KLSV 2717/2823 06009KT 9999 FEW250 QNH2980INS 
     BECMG 2720/2721 15012G23KT 9999 FEW110 SCT200 QNH2982INS 
     BECMG 2803/2804 11009KT 9999 FEW120 QNH2983INS 
     BECMG 2817/2818 13012G23KT 9999 SCT120 QNH2983INS TX34/2723Z TN22/2812Z
       
KLAS 271856Z VRB05KT 10SM FEW120 SCT250 31/01 A2990 RMK AO2 SLP099 T03110011
KLAS 271720Z 2718/2818 06006KT P6SM SCT250 
     FM271900 14006KT P6SM FEW120 
     FM272300 19012G22KT P6SM FEW120 
     FM280400 20010KT P6SM SKC 
     FM281300 VRB05KT P6SM SKC
       
KHII 271935Z AUTO 14013G16KT 10SM CLR 33/00 A2987 RMK AO2
KIFP 271935Z AUTO 21006G15KT 10SM FEW075 33/03 A2987 RMK AO2
KIFP 271720Z 2718/2818 22010KT P6SM BKN250 
     FM271900 19010G18KT P6SM BKN250 
     FM280100 16010KT P6SM FEW250 
     FM280800 VRB06KT P6SM SKC